Terminal Aerodrome Forecast
Issued by NWS Cleveland, OH

Home | Current Version | Previous Version | Graphics & Text | Print | Product List | Glossary On
Versions: 1 2 3 4 5 6 7 8 9 10 11 12 13 14 15 16 17 18 19
299
FTUS41 KCLE 160938 AAA
TAFMFD
TAF AMD
KMFD 160938Z 1610/1706 32008KT P6SM BKN035
      TEMPO 1610/1612 4SM -RA BR OVC012
     FM161500 32012KT P6SM OVC020
     FM162200 33009KT P6SM BKN035=

USA.gov is the U.S. government's official web portal to all federal, state and local government web resources and services.